Time;durP1;ratioP1;P1;durP2;ratioP2;P2;SDS_P1;SDS_P2;PMS_P1;PMS_P2;Temp;Humidity;BMP_temperature;BMP_pressure;BME280_temperature;BME280_humidity;BME280_pressure;Samples;Min_cycle;Max_cycle;Signal;HPM_P1;HPM_P2
2023/06/15 00:00:57;;;;;;;7.82;4.13;;;16.00;99.90;;;;;;4887221;29;20049;-79
2023/06/15 00:03:25;;;;;;;6.45;3.70;;;15.90;99.90;;;;;;4886466;29;20079;-79
2023/06/15 00:05:53;;;;;;;6.80;3.83;;;15.90;99.90;;;;;;4910260;29;20040;-79
2023/06/15 00:08:20;;;;;;;9.18;3.50;;;15.80;99.90;;;;;;4898399;29;20793;-79
2023/06/15 00:10:48;;;;;;;9.27;3.80;;;15.90;99.90;;;;;;4904980;29;20468;-79
2023/06/15 00:13:16;;;;;;;7.15;3.30;;;15.80;99.90;;;;;;4895004;29;20056;-79
2023/06/15 00:15:43;;;;;;;7.78;3.00;;;15.80;99.90;;;;;;4886759;29;20080;-79
2023/06/15 00:18:12;;;;;;;6.32;3.72;;;15.70;99.90;;;;;;4893383;29;20044;-79
2023/06/15 00:20:39;;;;;;;5.53;3.88;;;15.70;99.90;;;;;;4888392;29;20669;-79
2023/06/15 00:23:08;;;;;;;9.13;3.45;;;15.60;99.90;;;;;;4890127;29;20044;-79
2023/06/15 00:25:36;;;;;;;7.72;3.60;;;15.60;99.90;;;;;;4908542;29;20051;-79
2023/06/15 00:28:04;;;;;;;6.97;3.45;;;15.60;99.90;;;;;;4902102;29;20477;-79
2023/06/15 00:30:31;;;;;;;5.63;3.40;;;15.70;99.90;;;;;;4889209;29;20051;-79
2023/06/15 00:32:58;;;;;;;6.65;3.50;;;15.60;99.90;;;;;;4898428;29;20397;-79
2023/06/15 00:35:26;;;;;;;6.68;3.70;;;15.70;99.90;;;;;;4889802;29;20055;-79
2023/06/15 00:37:54;;;;;;;6.47;4.15;;;15.60;99.90;;;;;;4887823;29;20048;-79
2023/06/15 00:40:21;;;;;;;7.93;3.90;;;15.60;99.90;;;;;;4886817;29;22555;-79
2023/06/15 00:42:49;;;;;;;4.32;2.88;;;15.50;99.90;;;;;;4878881;29;20053;-79
2023/06/15 00:45:16;;;;;;;5.53;3.20;;;15.50;99.90;;;;;;4888425;29;20052;-79
2023/06/15 00:47:45;;;;;;;8.93;4.05;;;15.60;99.90;;;;;;4905184;29;20100;-79
2023/06/15 00:50:15;;;;;;;7.88;3.83;;;15.50;99.90;;;;;;4893613;29;20416;-79
2023/06/15 00:52:45;;;;;;;9.15;4.30;;;15.40;99.90;;;;;;4902154;29;20093;-79
2023/06/15 00:55:14;;;;;;;7.78;3.55;;;15.40;99.90;;;;;;4888779;29;20064;-79
2023/06/15 00:57:44;;;;;;;7.55;3.80;;;15.40;99.90;;;;;;4903463;29;20040;-79
2023/06/15 01:00:14;;;;;;;6.78;3.70;;;15.40;99.90;;;;;;4892842;29;20400;-78
2023/06/15 01:02:42;;;;;;;6.78;3.72;;;15.40;99.90;;;;;;4903692;29;20048;-78
2023/06/15 01:05:10;;;;;;;8.32;3.88;;;15.40;99.90;;;;;;4895276;29;20168;-79
2023/06/15 01:07:40;;;;;;;7.63;3.67;;;15.40;99.90;;;;;;4894251;29;20060;-79
2023/06/15 01:10:11;;;;;;;6.85;3.92;;;15.30;99.90;;;;;;4890741;29;20060;-78
2023/06/15 01:12:40;;;;;;;8.68;3.80;;;15.30;99.90;;;;;;4887483;29;22770;-78
2023/06/15 01:15:08;;;;;;;10.07;4.60;;;15.30;99.90;;;;;;4882270;29;20044;-79
2023/06/15 01:17:44;;;;;;;6.30;3.78;;;15.30;99.90;;;;;;4891922;29;20048;-79
2023/06/15 01:20:24;;;;;;;8.48;3.92;;;15.20;99.90;;;;;;4899465;29;20056;-79
2023/06/15 01:23:10;;;;;;;6.80;3.65;;;15.20;99.90;;;;;;4877460;29;20072;-79
2023/06/15 01:25:48;;;;;;;7.40;4.32;;;15.20;99.90;;;;;;4891651;29;20051;-79
2023/06/15 01:28:22;;;;;;;8.13;3.55;;;15.10;99.90;;;;;;4884569;29;20186;-79
2023/06/15 01:30:57;;;;;;;6.00;3.60;;;15.10;99.90;;;;;;4898165;29;20123;-78
2023/06/15 01:33:26;;;;;;;7.85;3.45;;;15.20;99.90;;;;;;4890795;29;20075;-79
2023/06/15 01:35:53;;;;;;;7.40;3.85;;;15.10;99.90;;;;;;4900941;29;20068;-79
2023/06/15 01:38:24;;;;;;;7.97;4.25;;;15.00;99.90;;;;;;4897500;29;20480;-79
2023/06/15 01:40:52;;;;;;;7.32;3.28;;;15.00;99.90;;;;;;4901354;29;20045;-79
2023/06/15 01:43:25;;;;;;;7.78;3.63;;;15.10;99.90;;;;;;4900004;29;20046;-79
2023/06/15 01:45:54;;;;;;;8.90;3.97;;;15.00;99.90;;;;;;4890040;29;20057;-79
2023/06/15 01:48:22;;;;;;;10.73;4.35;;;15.00;99.90;;;;;;4901546;29;20048;-79
2023/06/15 01:50:49;;;;;;;9.27;3.53;;;15.00;99.90;;;;;;4877940;29;20140;-79
2023/06/15 01:53:16;;;;;;;6.80;3.38;;;15.00;99.90;;;;;;4886489;29;20300;-79
2023/06/15 01:55:44;;;;;;;5.57;3.50;;;15.00;99.90;;;;;;4899681;29;20393;-79
2023/06/15 01:58:15;;;;;;;6.07;3.50;;;15.00;99.90;;;;;;4885887;29;20052;-79
2023/06/15 02:00:46;;;;;;;7.28;3.60;;;14.90;99.90;;;;;;4883362;29;22734;-79
2023/06/15 02:03:13;;;;;;;6.93;3.55;;;14.90;99.90;;;;;;4886815;29;20056;-79
2023/06/15 02:05:41;;;;;;;5.97;3.53;;;14.90;99.90;;;;;;4890694;29;20054;-79
2023/06/15 02:08:09;;;;;;;7.82;3.47;;;14.80;99.90;;;;;;4894143;29;20762;-79
2023/06/15 02:10:37;;;;;;;5.20;3.47;;;14.80;99.90;;;;;;4891580;29;20065;-79
2023/06/15 02:13:07;;;;;;;6.38;3.85;;;14.80;99.90;;;;;;4876000;29;20075;-79
2023/06/15 02:15:36;;;;;;;5.78;3.38;;;14.70;99.90;;;;;;4897121;29;20131;-79
2023/06/15 02:18:12;;;;;;;7.10;3.30;;;14.70;99.90;;;;;;4885069;29;20119;-79
2023/06/15 02:20:40;;;;;;;7.30;3.90;;;14.80;99.90;;;;;;4888513;29;20103;-79
2023/06/15 02:23:08;;;;;;;6.88;3.92;;;14.70;99.90;;;;;;4889818;29;20048;-79
2023/06/15 02:25:35;;;;;;;6.72;3.95;;;14.70;99.90;;;;;;4905588;29;20579;-79
2023/06/15 02:28:03;;;;;;;4.68;3.42;;;14.70;99.90;;;;;;4886227;29;20132;-79
2023/06/15 02:30:33;;;;;;;9.15;4.45;;;14.60;99.90;;;;;;4886168;29;20440;-79
2023/06/15 02:33:00;;;;;;;7.95;3.67;;;14.60;99.90;;;;;;4887364;29;20056;-79
2023/06/15 02:35:28;;;;;;;8.82;3.83;;;14.70;99.90;;;;;;4892096;29;20052;-79
2023/06/15 02:37:55;;;;;;;6.53;3.38;;;14.70;99.90;;;;;;4876311;29;20040;-79
2023/06/15 02:40:23;;;;;;;6.30;3.50;;;14.60;99.90;;;;;;4871215;29;20081;-79
2023/06/15 02:42:50;;;;;;;7.38;3.65;;;14.60;99.90;;;;;;4900874;29;20143;-79
2023/06/15 02:45:19;;;;;;;5.55;3.53;;;14.60;99.90;;;;;;4899277;29;20043;-79
2023/06/15 02:47:47;;;;;;;8.35;3.55;;;14.50;99.90;;;;;;4882702;29;20417;-79
2023/06/15 02:50:14;;;;;;;6.40;3.72;;;14.60;99.90;;;;;;4885808;29;20060;-79
2023/06/15 02:52:49;;;;;;;5.43;3.40;;;14.60;99.90;;;;;;4883606;29;20036;-79
2023/06/15 02:55:16;;;;;;;7.53;4.15;;;14.60;99.90;;;;;;4884411;29;20048;-79
2023/06/15 02:57:44;;;;;;;6.70;3.50;;;14.60;99.90;;;;;;4880766;29;20056;-79
2023/06/15 03:00:30;;;;;;;9.23;3.95;;;14.60;99.90;;;;;;4898687;29;20055;-79
2023/06/15 03:03:09;;;;;;;6.70;3.90;;;14.50;99.90;;;;;;4890039;29;20048;-79
2023/06/15 03:05:39;;;;;;;6.85;3.97;;;14.50;99.90;;;;;;4887941;29;20135;-79
2023/06/15 03:08:09;;;;;;;8.38;4.10;;;14.50;99.90;;;;;;4901837;29;20067;-79
2023/06/15 03:10:52;;;;;;;6.95;4.05;;;14.50;99.90;;;;;;4893675;29;20053;-79
2023/06/15 03:13:20;;;;;;;7.03;4.00;;;14.60;99.90;;;;;;4884331;29;20064;-79
2023/06/15 03:15:48;;;;;;;6.80;4.53;;;14.60;99.90;;;;;;4901425;29;20522;-79
2023/06/15 03:18:16;;;;;;;6.90;3.85;;;14.60;99.90;;;;;;4885803;29;20060;-79
2023/06/15 03:20:46;;;;;;;7.45;4.03;;;14.60;99.90;;;;;;4883006;29;22660;-79
2023/06/15 03:23:13;;;;;;;7.95;4.18;;;14.60;99.90;;;;;;4877625;29;20512;-79
2023/06/15 03:25:41;;;;;;;7.25;4.75;;;14.70;99.90;;;;;;4877462;29;20144;-79
2023/06/15 03:28:09;;;;;;;5.93;3.90;;;14.60;99.90;;;;;;4873834;29;20044;-79
2023/06/15 03:30:40;;;;;;;7.43;4.30;;;14.70;99.90;;;;;;4872171;29;23012;-79
2023/06/15 03:33:08;;;;;;;6.90;4.00;;;14.70;99.90;;;;;;4887106;29;20106;-79
2023/06/15 03:35:35;;;;;;;7.50;4.07;;;14.80;99.90;;;;;;4900164;29;20072;-79
2023/06/15 03:38:02;;;;;;;7.15;4.40;;;14.80;99.90;;;;;;4902299;29;20055;-79
2023/06/15 03:40:30;;;;;;;7.10;3.60;;;14.80;99.90;;;;;;4897765;29;20131;-79
2023/06/15 03:42:57;;;;;;;6.90;4.13;;;14.80;99.90;;;;;;4894391;29;20111;-79
2023/06/15 03:45:24;;;;;;;9.55;4.03;;;14.90;99.90;;;;;;4879881;29;20051;-79
2023/06/15 03:47:52;;;;;;;7.32;4.07;;;15.00;99.90;;;;;;4907138;29;20527;-79
2023/06/15 03:50:20;;;;;;;6.97;4.00;;;15.00;99.90;;;;;;4886286;29;20036;-79
2023/06/15 03:52:47;;;;;;;6.50;3.95;;;15.10;99.90;;;;;;4902429;29;20067;-78
2023/06/15 03:55:14;;;;;;;6.32;4.03;;;15.10;99.90;;;;;;4901472;29;20474;-79
2023/06/15 03:57:41;;;;;;;11.18;4.57;;;15.10;99.90;;;;;;4897655;29;22624;-79
2023/06/15 04:00:10;;;;;;;8.63;3.88;;;15.10;99.90;;;;;;4918203;29;20044;-79
2023/06/15 04:02:40;;;;;;;9.77;4.20;;;15.20;99.90;;;;;;4920857;29;20436;-79
2023/06/15 04:05:11;;;;;;;6.47;4.03;;;15.20;99.90;;;;;;4901339;29;20061;-79
2023/06/15 04:07:39;;;;;;;8.05;4.50;;;15.20;99.90;;;;;;4898097;29;21098;-79
2023/06/15 04:10:10;;;;;;;6.93;3.75;;;15.30;99.90;;;;;;4900852;29;20138;-79
2023/06/15 04:12:39;;;;;;;8.07;4.00;;;15.30;99.90;;;;;;4882024;29;20059;-79
2023/06/15 04:15:07;;;;;;;6.05;4.00;;;15.30;99.90;;;;;;4908487;29;20427;-79
2023/06/15 04:17:37;;;;;;;6.45;3.60;;;15.40;99.90;;;;;;4894628;29;20044;-79
2023/06/15 04:20:05;;;;;;;6.85;3.72;;;15.50;99.90;;;;;;4883700;29;20052;-79
2023/06/15 04:22:33;;;;;;;6.82;3.75;;;15.50;99.90;;;;;;4891028;29;22076;-79
2023/06/15 04:25:01;;;;;;;8.40;4.05;;;15.50;99.90;;;;;;4897607;29;20050;-79
2023/06/15 04:27:28;;;;;;;4.50;3.67;;;15.60;99.90;;;;;;4894142;29;20132;-79
2023/06/15 04:29:57;;;;;;;5.85;3.72;;;15.70;99.90;;;;;;4886302;29;20431;-79
2023/06/15 04:32:25;;;;;;;7.35;3.58;;;15.70;99.90;;;;;;4890324;29;20052;-79
2023/06/15 04:34:54;;;;;;;8.07;3.70;;;15.90;99.90;;;;;;4905302;29;20100;-79
2023/06/15 04:37:23;;;;;;;9.23;4.32;;;15.90;99.90;;;;;;4882764;29;20126;-79
2023/06/15 04:39:50;;;;;;;8.20;3.63;;;16.00;99.90;;;;;;4908091;29;20393;-79
2023/06/15 04:42:18;;;;;;;6.90;3.58;;;16.10;99.90;;;;;;4886043;29;20044;-79
2023/06/15 04:44:47;;;;;;;6.95;3.45;;;16.20;99.90;;;;;;4904748;29;20044;-79
2023/06/15 04:47:14;;;;;;;6.53;3.83;;;16.30;99.90;;;;;;4878706;29;20083;-79
2023/06/15 04:49:44;;;;;;;5.65;3.33;;;16.30;99.90;;;;;;4877391;29;21072;-79
2023/06/15 04:52:12;;;;;;;6.80;3.95;;;16.50;99.90;;;;;;4876541;29;20588;-79
2023/06/15 04:54:41;;;;;;;5.68;3.47;;;16.60;99.90;;;;;;4886457;29;22760;-79
2023/06/15 04:57:08;;;;;;;6.25;3.40;;;16.60;99.90;;;;;;4884843;29;20044;-79
2023/06/15 04:59:39;;;;;;;6.45;4.07;;;16.70;99.90;;;;;;4879603;29;20173;-79
2023/06/15 05:02:08;;;;;;;5.93;3.60;;;16.80;99.90;;;;;;4885398;29;20052;-79
2023/06/15 05:04:37;;;;;;;6.25;3.22;;;16.80;99.90;;;;;;4889357;29;20304;-79
2023/06/15 05:07:06;;;;;;;8.43;3.65;;;16.90;99.90;;;;;;4887875;29;20060;-79
2023/06/15 05:09:39;;;;;;;4.55;2.83;;;17.00;99.90;;;;;;4888295;29;20044;-79
2023/06/15 05:12:10;;;;;;;6.88;2.88;;;17.10;99.50;;;;;;4873755;29;20119;-79
2023/06/15 05:14:38;;;;;;;6.85;3.58;;;17.10;99.10;;;;;;4886866;29;20052;-79
2023/06/15 05:17:07;;;;;;;5.30;3.25;;;17.10;98.40;;;;;;4902969;29;20051;-79
2023/06/15 05:19:35;;;;;;;6.10;2.58;;;17.20;98.40;;;;;;4889455;29;20561;-79
2023/06/15 05:22:03;;;;;;;5.80;2.60;;;17.40;98.00;;;;;;4887741;29;20057;-79
2023/06/15 05:24:34;;;;;;;4.40;2.70;;;17.50;97.70;;;;;;4890686;29;20049;-79
2023/06/15 05:27:02;;;;;;;3.60;2.53;;;17.60;97.80;;;;;;4882537;29;20048;-79
2023/06/15 05:29:30;;;;;;;3.88;2.30;;;17.60;96.50;;;;;;4879542;29;20045;-78
2023/06/15 05:32:00;;;;;;;5.82;2.78;;;17.70;96.60;;;;;;4894030;29;20053;-79
2023/06/15 05:34:29;;;;;;;4.82;2.63;;;17.70;96.40;;;;;;4901990;29;20059;-79
2023/06/15 05:36:57;;;;;;;4.75;2.40;;;17.90;96.40;;;;;;4886111;29;20230;-79
2023/06/15 05:39:32;;;;;;;5.05;2.92;;;18.00;97.00;;;;;;4899525;29;20056;-79
2023/06/15 05:42:01;;;;;;;4.40;2.15;;;18.20;96.00;;;;;;4890102;29;20056;-79
2023/06/15 05:44:28;;;;;;;5.85;2.85;;;18.30;95.50;;;;;;4876956;29;20135;-79
2023/06/15 05:46:57;;;;;;;5.82;3.00;;;18.40;94.90;;;;;;4885987;29;22761;-78
2023/06/15 05:49:25;;;;;;;4.95;3.05;;;18.50;94.80;;;;;;4881738;29;20060;-79
2023/06/15 05:51:53;;;;;;;5.90;2.60;;;18.60;95.60;;;;;;4898182;29;20060;-80
2023/06/15 05:54:23;;;;;;;6.45;3.05;;;18.70;94.70;;;;;;4888474;29;20512;-79
2023/06/15 05:56:51;;;;;;;7.85;3.40;;;18.90;95.30;;;;;;4896544;29;20143;-79
2023/06/15 05:59:19;;;;;;;7.28;3.60;;;19.00;95.30;;;;;;4877227;29;20052;-79
2023/06/15 06:01:59;;;;;;;5.57;2.95;;;19.10;94.30;;;;;;4861984;29;20053;-80
2023/06/15 06:04:27;;;;;;;6.65;2.80;;;19.30;94.70;;;;;;4873034;29;20043;-79
2023/06/15 06:06:55;;;;;;;3.72;2.75;;;19.30;93.60;;;;;;4876301;29;20468;-79
2023/06/15 06:09:22;;;;;;;5.22;2.95;;;19.40;94.10;;;;;;4861679;29;20048;-79
2023/06/15 06:11:50;;;;;;;4.20;2.33;;;19.50;92.60;;;;;;4836307;29;20100;-79
2023/06/15 06:14:18;;;;;;;5.03;2.58;;;19.60;92.30;;;;;;4874727;29;20048;-79
2023/06/15 06:16:45;;;;;;;4.50;2.53;;;19.60;91.70;;;;;;4859963;29;20524;-79
2023/06/15 06:19:12;;;;;;;5.85;2.85;;;19.60;91.70;;;;;;4862098;29;20103;-79
2023/06/15 06:21:40;;;;;;;5.88;2.75;;;19.80;91.50;;;;;;4869507;29;20045;-79
2023/06/15 06:24:08;;;;;;;4.20;2.28;;;19.90;91.50;;;;;;4834808;29;20087;-79
2023/06/15 06:26:37;;;;;;;5.05;2.15;;;20.00;91.30;;;;;;4852528;29;20079;-79
2023/06/15 06:29:04;;;;;;;4.63;2.42;;;20.10;90.90;;;;;;4861216;29;22728;-78
2023/06/15 06:31:31;;;;;;;4.82;2.55;;;20.20;90.80;;;;;;4861430;29;20060;-80
2023/06/15 06:33:58;;;;;;;4.20;2.20;;;20.20;90.30;;;;;;4862885;29;20052;-79
2023/06/15 06:36:26;;;;;;;6.15;2.33;;;20.30;90.50;;;;;;4848811;29;20139;-79
2023/06/15 06:38:53;;;;;;;4.70;2.58;;;20.50;90.40;;;;;;4857836;29;20040;-79
2023/06/15 06:41:29;;;;;;;4.97;2.42;;;20.40;89.70;;;;;;4852340;29;20059;-79
2023/06/15 06:43:56;;;;;;;3.88;2.00;;;20.40;90.50;;;;;;4853852;29;20044;-79
2023/06/15 06:46:24;;;;;;;3.95;2.30;;;20.50;89.50;;;;;;4867218;29;20085;-80
2023/06/15 06:48:51;;;;;;;4.00;2.38;;;20.30;89.70;;;;;;4858430;29;20136;-80
2023/06/15 06:51:19;;;;;;;6.00;2.53;;;20.00;88.90;;;;;;4855856;29;20056;-79
2023/06/15 06:53:46;;;;;;;4.03;2.10;;;20.00;89.80;;;;;;4857372;29;20100;-79
2023/06/15 06:56:14;;;;;;;4.25;2.50;;;20.20;90.00;;;;;;4843419;29;20801;-80
2023/06/15 06:58:41;;;;;;;5.25;2.30;;;20.40;89.50;;;;;;4880177;29;20051;-79
2023/06/15 07:01:08;;;;;;;5.80;2.28;;;20.40;88.00;;;;;;4872511;29;20056;-80
2023/06/15 07:03:38;;;;;;;4.95;2.40;;;20.60;88.30;;;;;;4865013;29;20053;-79
2023/06/15 07:06:06;;;;;;;4.50;2.40;;;20.70;89.40;;;;;;4865735;29;20052;-79
2023/06/15 07:08:33;;;;;;;5.57;2.70;;;20.70;88.10;;;;;;4880648;29;20044;-79
2023/06/15 07:11:01;;;;;;;4.78;2.55;;;20.80;87.50;;;;;;4838525;29;20581;-80
2023/06/15 07:13:28;;;;;;;3.78;1.85;;;21.00;87.00;;;;;;4836442;29;20063;-79
2023/06/15 07:15:57;;;;;;;4.18;2.20;;;21.10;85.80;;;;;;4875859;29;20109;-79
2023/06/15 07:18:25;;;;;;;3.85;1.80;;;21.20;84.80;;;;;;4848163;29;20045;-79
2023/06/15 07:20:53;;;;;;;3.33;2.50;;;21.20;84.00;;;;;;4878472;29;20055;-79
2023/06/15 07:23:22;;;;;;;3.33;2.10;;;21.50;86.70;;;;;;4839105;29;20048;-79
2023/06/15 07:25:51;;;;;;;5.75;2.97;;;21.70;86.60;;;;;;4845363;29;20053;-78
2023/06/15 07:28:19;;;;;;;4.65;1.92;;;21.80;85.20;;;;;;4855024;29;20385;-80
2023/06/15 07:30:49;;;;;;;4.88;2.25;;;21.80;83.30;;;;;;4866605;29;20048;-80
2023/06/15 07:33:17;;;;;;;4.45;2.30;;;21.90;83.20;;;;;;4869042;29;20092;-78
2023/06/15 07:35:45;;;;;;;5.32;1.85;;;22.00;82.80;;;;;;4869087;29;20536;-79
2023/06/15 07:38:14;;;;;;;3.72;2.25;;;22.20;79.00;;;;;;4870972;29;20548;-78
2023/06/15 07:40:41;;;;;;;4.90;2.45;;;22.10;77.50;;;;;;4865591;29;20063;-79
2023/06/15 07:43:10;;;;;;;4.47;2.33;;;22.00;78.50;;;;;;4854719;29;20424;-80
2023/06/15 07:45:37;;;;;;;3.10;1.88;;;22.00;78.60;;;;;;4853427;29;20049;-79
2023/06/15 07:48:05;;;;;;;8.30;2.80;;;22.10;77.90;;;;;;4866030;29;20048;-79
2023/06/15 07:50:32;;;;;;;5.57;2.85;;;21.90;78.00;;;;;;4853306;29;20056;-79
2023/06/15 07:53:00;;;;;;;4.30;2.53;;;22.00;81.60;;;;;;4836851;29;20048;-78
2023/06/15 07:55:27;;;;;;;8.63;2.42;;;22.20;77.50;;;;;;4849292;29;20431;-79
2023/06/15 07:57:54;;;;;;;7.47;2.95;;;22.10;76.30;;;;;;4854455;29;20044;-80
2023/06/15 08:00:22;;;;;;;3.70;1.83;;;22.20;74.70;;;;;;4850362;29;20072;-79
2023/06/15 08:02:58;;;;;;;4.75;2.25;;;22.20;73.70;;;;;;4859542;29;20056;-80
2023/06/15 08:05:25;;;;;;;3.90;2.60;;;22.30;73.60;;;;;;4837432;29;20790;-80
2023/06/15 08:07:53;;;;;;;4.70;2.67;;;22.40;73.60;;;;;;4866956;29;20042;-79
2023/06/15 08:10:21;;;;;;;4.50;2.10;;;22.30;72.40;;;;;;4858770;29;20137;-80
2023/06/15 08:12:48;;;;;;;4.25;2.05;;;22.30;72.90;;;;;;4868154;29;20443;-79
2023/06/15 08:15:17;;;;;;;5.43;2.60;;;22.40;72.40;;;;;;4852131;29;22796;-80
2023/06/15 08:17:44;;;;;;;4.60;2.35;;;22.40;71.60;;;;;;4865899;29;20049;-80
2023/06/15 08:20:12;;;;;;;3.50;2.40;;;22.50;71.60;;;;;;4865213;29;20051;-79
2023/06/15 08:22:39;;;;;;;3.22;2.05;;;22.70;73.10;;;;;;4866595;29;20067;-79
2023/06/15 08:25:08;;;;;;;3.38;2.22;;;22.80;73.90;;;;;;4875392;29;20052;-78
2023/06/15 08:27:38;;;;;;;3.38;2.42;;;23.00;71.20;;;;;;4862175;29;20186;-79
2023/06/15 08:30:06;;;;;;;3.80;2.30;;;23.00;69.80;;;;;;4858347;29;20130;-80
2023/06/15 08:32:33;;;;;;;5.03;2.70;;;23.00;68.60;;;;;;4860395;29;20219;-80
2023/06/15 08:35:00;;;;;;;4.22;2.15;;;23.10;70.20;;;;;;4855111;29;20051;-80
2023/06/15 08:37:28;;;;;;;3.38;1.95;;;23.10;67.50;;;;;;4853191;29;20088;-80
2023/06/15 08:39:56;;;;;;;4.35;1.70;;;23.00;67.30;;;;;;4862690;29;20048;-79
2023/06/15 08:42:27;;;;;;;2.83;1.90;;;23.00;67.30;;;;;;4875063;29;20130;-80
2023/06/15 08:44:57;;;;;;;6.03;1.85;;;23.10;66.90;;;;;;4867306;29;20396;-80
2023/06/15 08:47:27;;;;;;;2.63;2.05;;;23.00;64.80;;;;;;4861275;29;20049;-80
2023/06/15 08:49:54;;;;;;;2.13;1.60;;;22.90;64.80;;;;;;4861828;29;20060;-78
2023/06/15 08:52:24;;;;;;;5.15;1.40;;;23.20;63.90;;;;;;4854797;29;20067;-79
2023/06/15 08:54:53;;;;;;;4.13;1.85;;;23.20;63.90;;;;;;4861990;29;20060;-80
2023/06/15 08:57:20;;;;;;;2.92;1.60;;;23.20;64.90;;;;;;4846930;29;20051;-79
2023/06/15 08:59:47;;;;;;;5.50;1.98;;;23.20;64.80;;;;;;4858144;29;20079;-78
2023/06/15 09:02:25;;;;;;;4.03;2.28;;;23.10;64.50;;;;;;4869423;29;20417;-80
2023/06/15 09:04:53;;;;;;;4.25;2.65;;;23.10;64.60;;;;;;4844681;29;20085;-80
2023/06/15 09:07:21;;;;;;;3.53;2.40;;;23.20;66.20;;;;;;4853363;29;20064;-79
2023/06/15 09:10:17;;;;;;;4.05;2.03;;;23.20;65.60;;;;;;4881554;29;22949;-80
2023/06/15 09:12:45;;;;;;;3.72;1.90;;;23.20;64.80;;;;;;4869281;29;20091;-80
2023/06/15 09:15:29;;;;;;;3.05;1.85;;;23.20;65.40;;;;;;4857023;29;20048;-80
2023/06/15 09:18:01;;;;;;;3.28;2.00;;;23.20;65.40;;;;;;4859868;29;20535;-79
2023/06/15 09:20:31;;;;;;;2.10;1.65;;;23.20;64.60;;;;;;4858197;29;20542;-79
2023/06/15 09:23:01;;;;;;;2.85;1.90;;;23.30;66.40;;;;;;4854711;29;20052;-80
2023/06/15 09:25:33;;;;;;;4.00;2.17;;;23.40;66.40;;;;;;4854870;29;20135;-80
2023/06/15 09:28:08;;;;;;;4.10;2.00;;;23.30;66.50;;;;;;4854789;29;20084;-80
2023/06/15 09:30:40;;;;;;;5.13;2.10;;;23.30;63.80;;;;;;4843274;29;20934;-79
2023/06/15 09:33:14;;;;;;;;;;;23.30;65.50;;;;;;4868483;29;20071;-79
2023/06/15 09:36:06;;;;;;;3.20;2.08;;;23.40;64.60;;;;;;4859198;29;20315;-77
2023/06/15 09:38:46;;;;;;;6.93;2.05;;;23.40;63.50;;;;;;4865213;29;20060;-77
2023/06/15 09:41:15;;;;;;;3.15;2.10;;;23.50;63.20;;;;;;4855896;29;20544;-79
2023/06/15 09:43:43;;;;;;;3.42;1.80;;;23.50;62.50;;;;;;4860100;29;20119;-77
2023/06/15 09:46:12;;;;;;;2.75;1.77;;;23.40;61.80;;;;;;4853111;29;20109;-77
2023/06/15 09:48:42;;;;;;;4.57;1.90;;;23.40;63.40;;;;;;4854016;29;20681;-77
2023/06/15 09:51:10;;;;;;;3.17;1.63;;;23.30;62.00;;;;;;4866791;29;20052;-77
2023/06/15 09:53:39;;;;;;;3.17;1.75;;;23.50;61.30;;;;;;4853228;29;20056;-78
2023/06/15 09:56:09;;;;;;;2.83;1.77;;;23.40;59.70;;;;;;4857097;29;20052;-78
2023/06/15 09:58:55;;;;;;;2.50;1.60;;;23.40;59.90;;;;;;4827007;29;20044;-77
2023/06/15 10:01:26;;;;;;;2.65;1.85;;;23.50;59.60;;;;;;4844551;29;20041;-77
2023/06/15 10:03:56;;;;;;;3.30;1.70;;;23.40;61.20;;;;;;4868867;29;20048;-78
2023/06/15 10:06:25;;;;;;;2.53;1.70;;;23.60;61.80;;;;;;4858906;29;20139;-78
2023/06/15 10:08:59;;;;;;;2.72;1.48;;;23.70;59.40;;;;;;4861377;29;20531;-77
2023/06/15 10:11:28;;;;;;;3.38;1.75;;;23.50;59.20;;;;;;4868462;29;20527;-78
2023/06/15 10:14:03;;;;;;;3.47;1.35;;;23.50;59.50;;;;;;4869134;29;20452;-77
2023/06/15 10:16:30;;;;;;;3.83;1.70;;;23.60;56.70;;;;;;4874590;29;20127;-78
2023/06/15 10:19:04;;;;;;;3.75;1.63;;;23.60;57.50;;;;;;4868319;29;20527;-77
2023/06/15 10:21:36;;;;;;;3.03;1.83;;;23.70;57.30;;;;;;4841648;29;22374;-77
2023/06/15 10:24:12;;;;;;;2.15;1.58;;;23.70;58.90;;;;;;4856124;29;20063;-78
2023/06/15 10:26:42;;;;;;;5.25;1.60;;;23.60;57.80;;;;;;4852404;29;20048;-77
2023/06/15 10:29:23;;;;;;;3.92;2.00;;;23.70;57.40;;;;;;4881726;29;20064;-77
2023/06/15 10:32:12;;;;;;;4.47;1.60;;;23.50;56.20;;;;;;4878895;29;20340;-77
2023/06/15 10:34:52;;;;;;;2.83;1.55;;;23.50;58.60;;;;;;4857631;29;20127;-77
2023/06/15 10:37:52;;;;;;;3.47;1.83;;;23.80;59.40;;;;;;4852905;29;20527;-78
2023/06/15 10:40:29;;;;;;;2.35;1.65;;;23.80;58.10;;;;;;4838283;29;20213;-78
2023/06/15 10:42:59;;;;;;;3.20;1.60;;;24.00;60.40;;;;;;4862020;29;20431;-78
2023/06/15 10:45:34;;;;;;;2.95;2.05;;;23.80;57.90;;;;;;4868924;29;20058;-78
2023/06/15 10:48:03;;;;;;;2.00;1.50;;;23.90;59.60;;;;;;4855420;29;20056;-78
2023/06/15 10:50:42;;;;;;;2.03;1.52;;;24.00;57.40;;;;;;4860818;29;20099;-78
2023/06/15 10:53:26;;;;;;;3.13;1.75;;;24.00;56.80;;;;;;4865863;29;20056;-80
2023/06/15 10:55:56;;;;;;;2.00;1.50;;;24.00;56.40;;;;;;4846750;29;20527;-79
2023/06/15 10:58:26;;;;;;;2.45;1.60;;;24.00;56.10;;;;;;4859824;29;20139;-78
2023/06/15 11:01:07;;;;;;;2.23;1.20;;;24.00;55.90;;;;;;4860892;29;20040;-78
2023/06/15 11:03:35;;;;;;;2.83;1.58;;;23.90;56.50;;;;;;4854626;29;20474;-78
2023/06/15 11:06:35;;;;;;;3.28;1.63;;;23.80;57.10;;;;;;4858912;29;20432;-78
2023/06/15 11:09:12;;;;;;;2.63;1.35;;;24.00;57.80;;;;;;4842575;29;22165;-77
2023/06/15 11:11:42;;;;;;;2.58;1.73;;;24.00;58.10;;;;;;4853276;29;20483;-78
2023/06/15 11:14:19;;;;;;;3.85;2.05;;;24.00;56.80;;;;;;4857487;29;20472;-79
2023/06/15 11:17:09;;;;;;;2.08;1.52;;;24.00;56.10;;;;;;4856824;29;22734;-79
2023/06/15 11:19:42;;;;;;;2.42;1.40;;;24.00;55.30;;;;;;4868017;29;20052;-78
2023/06/15 11:22:25;;;;;;;3.22;1.48;;;24.10;55.80;;;;;;4862035;29;20068;-77
2023/06/15 11:24:57;;;;;;;2.78;1.73;;;24.00;55.00;;;;;;4855505;29;20051;-78
2023/06/15 11:27:24;;;;;;;5.95;2.03;;;24.30;55.00;;;;;;4876317;29;20044;-78
2023/06/15 11:29:55;;;;;;;3.10;1.38;;;24.10;54.60;;;;;;4868069;29;20049;-78
2023/06/15 11:32:26;;;;;;;2.70;1.27;;;23.90;52.00;;;;;;4886214;29;20052;-78
2023/06/15 11:35:03;;;;;;;2.00;1.02;;;23.90;52.80;;;;;;4870667;29;20055;-78
2023/06/15 11:37:30;;;;;;;3.05;1.55;;;23.70;52.90;;;;;;4863804;29;20063;-79
2023/06/15 11:40:00;;;;;;;2.00;1.33;;;23.90;52.70;;;;;;4857924;29;20049;-78
2023/06/15 11:42:28;;;;;;;2.67;1.60;;;24.20;53.60;;;;;;4854957;29;20044;-76
2023/06/15 11:44:56;;;;;;;1.95;1.50;;;24.20;52.70;;;;;;4856978;29;20042;-76
2023/06/15 11:47:23;;;;;;;2.00;1.60;;;24.30;57.10;;;;;;4861822;29;20104;-75
2023/06/15 11:49:50;;;;;;;1.50;1.10;;;24.30;55.60;;;;;;4866798;29;20079;-77
2023/06/15 11:52:18;;;;;;;4.50;1.33;;;24.30;53.60;;;;;;4866202;29;20049;-77
2023/06/15 11:54:45;;;;;;;3.00;1.23;;;24.30;52.50;;;;;;4875886;29;20056;-77
2023/06/15 11:57:20;;;;;;;2.28;1.48;;;24.30;54.90;;;;;;4846001;29;20512;-77
2023/06/15 11:59:48;;;;;;;2.47;2.00;;;24.20;57.50;;;;;;4870473;29;22539;-77
2023/06/15 12:02:16;;;;;;;3.00;1.98;;;24.00;55.20;;;;;;4868783;29;20151;-77
2023/06/15 12:04:46;;;;;;;4.43;1.95;;;24.00;56.80;;;;;;4883750;29;20048;-77
2023/06/15 12:07:14;;;;;;;2.80;1.55;;;24.10;57.70;;;;;;4892208;29;20050;-77
2023/06/15 12:10:03;;;;;;;2.50;1.70;;;24.10;55.80;;;;;;4851845;29;20055;-77
2023/06/15 12:12:32;;;;;;;4.38;2.33;;;24.30;58.30;;;;;;4885894;29;20144;-77
2023/06/15 12:15:00;;;;;;;3.42;1.77;;;24.30;58.40;;;;;;4869661;29;20049;-78
2023/06/15 12:17:35;;;;;;;2.75;1.85;;;24.10;57.00;;;;;;4869264;29;20053;-77
2023/06/15 12:20:11;;;;;;;5.18;2.17;;;24.00;58.20;;;;;;4869332;29;20116;-78
2023/06/15 12:22:46;;;;;;;6.43;1.90;;;23.90;58.60;;;;;;4859784;29;20052;-79
2023/06/15 12:25:16;;;;;;;4.03;2.53;;;24.00;58.70;;;;;;4870750;29;20103;-77
2023/06/15 12:27:45;;;;;;;3.33;1.90;;;23.90;59.50;;;;;;4873772;29;20194;-77
2023/06/15 12:30:17;;;;;;;3.03;2.30;;;23.90;58.40;;;;;;4862355;29;20183;-79
2023/06/15 12:32:46;;;;;;;4.50;2.65;;;23.80;58.00;;;;;;4868566;29;20056;-77
2023/06/15 12:35:38;;;;;;;5.35;1.95;;;23.80;59.00;;;;;;4857272;29;20052;-77
2023/06/15 12:38:10;;;;;;;3.70;2.42;;;24.00;59.30;;;;;;4852099;29;20147;-76
2023/06/15 12:40:41;;;;;;;3.08;1.52;;;24.00;58.70;;;;;;4864577;29;20053;-78
2023/06/15 12:43:09;;;;;;;2.95;1.90;;;24.20;57.90;;;;;;4852698;29;22283;-77
2023/06/15 12:45:37;;;;;;;3.92;2.22;;;24.30;57.90;;;;;;4858897;29;20044;-77
2023/06/15 12:48:05;;;;;;;2.28;1.73;;;24.30;59.10;;;;;;4843772;29;20049;-76
2023/06/15 12:50:32;;;;;;;5.75;2.40;;;24.40;58.10;;;;;;4863828;29;20070;-76
2023/06/15 12:53:00;;;;;;;3.35;2.15;;;24.30;60.30;;;;;;4858661;29;22334;-77
2023/06/15 12:55:28;;;;;;;3.45;2.53;;;24.20;58.50;;;;;;4853785;29;20059;-76
2023/06/15 12:57:56;;;;;;;3.42;2.25;;;24.10;59.50;;;;;;4855498;29;20056;-76
2023/06/15 13:00:25;;;;;;;4.15;2.40;;;24.00;59.60;;;;;;4889910;29;20476;-76
2023/06/15 13:02:53;;;;;;;3.92;2.10;;;24.10;61.10;;;;;;4870249;29;20045;-76